Time;durP1;ratioP1;P1;durP2;ratioP2;P2;SDS_P1;SDS_P2;PMS_P1;PMS_P2;Temp;Humidity;BMP_temperature;BMP_pressure;BME280_temperature;BME280_humidity;BME280_pressure;Samples;Min_cycle;Max_cycle;Signal;HPM_P1;HPM_P2
2023/08/11 00:01:11;;;;;;;16.42;4.30;;;;;;;-144.73;100.00;54407.69;4989445;28;20029;-72
2023/08/11 00:03:36;;;;;;;10.60;4.10;;;;;;;-144.73;100.00;54395.38;4990675;28;20236;-73
2023/08/11 00:06:03;;;;;;;9.93;4.35;;;;;;;-144.73;100.00;54432.31;4989800;28;20034;-72
2023/08/11 00:08:28;;;;;;;11.52;4.97;;;;;;;-144.73;100.00;54424.13;4988777;28;20034;-73
2023/08/11 00:10:54;;;;;;;10.57;5.03;;;;;;;-144.73;100.00;54424.13;4989696;28;20030;-71
2023/08/11 00:13:20;;;;;;;14.40;5.15;;;;;;;-144.73;100.00;54407.69;4990637;28;20034;-71
2023/08/11 00:15:45;;;;;;;11.43;3.88;;;;;;;-144.73;100.00;54399.50;4988112;28;20171;-72
2023/08/11 00:18:11;;;;;;;10.35;4.35;;;;;;;-144.73;100.00;54432.31;4986395;28;20038;-72
2023/08/11 00:20:37;;;;;;;13.63;5.57;;;;;;;-144.73;100.00;54428.22;4991312;28;20122;-71
2023/08/11 00:23:03;;;;;;;8.98;4.20;;;;;;;-144.73;100.00;54432.31;4990469;28;20034;-71
2023/08/11 00:25:29;;;;;;;11.77;4.32;;;;;;;-144.73;100.00;54409.75;4985003;28;20113;-72
2023/08/11 00:27:54;;;;;;;12.02;4.95;;;;;;;-144.73;100.00;54407.69;4989009;28;20513;-72
2023/08/11 00:30:20;;;;;;;9.90;4.70;;;;;;;-144.73;100.00;54399.50;4980293;28;20030;-72
2023/08/11 00:32:45;;;;;;;13.75;4.32;;;;;;;-144.73;100.00;54428.22;4990182;28;20014;-72
2023/08/11 00:35:11;;;;;;;9.68;3.92;;;;;;;-144.73;100.00;54424.13;4988625;28;20041;-74
2023/08/11 00:37:36;;;;;;;9.30;4.50;;;;;;;-144.73;100.00;54436.44;4983366;28;20045;-72
2023/08/11 00:40:04;;;;;;;11.93;4.80;;;;;;;-144.73;100.00;54411.81;4987035;28;20042;-72
2023/08/11 00:42:29;;;;;;;12.38;5.40;;;;;;;-144.73;100.00;54409.75;4988856;28;20086;-72
2023/08/11 00:44:57;;;;;;;16.05;5.50;;;;;;;-144.73;100.00;54364.59;4991161;28;20118;-72
2023/08/11 00:47:23;;;;;;;15.18;4.90;;;;;;;-144.73;100.00;54391.28;4985712;28;20113;-72
2023/08/11 00:49:49;;;;;;;14.27;4.70;;;;;;;-144.73;100.00;54395.38;4986150;28;20117;-72
2023/08/11 00:52:14;;;;;;;9.10;3.97;;;;;;;-144.73;100.00;54391.28;4989848;28;20025;-72
2023/08/11 00:54:41;;;;;;;12.00;4.60;;;;;;;-144.73;100.00;54391.28;4984640;28;20121;-72
2023/08/11 00:57:06;;;;;;;24.95;4.88;;;;;;;-144.73;100.00;54415.91;4986725;28;20121;-72
2023/08/11 00:59:31;;;;;;;12.48;4.68;;;;;;;-144.73;100.00;54415.91;4983297;28;20110;-72
2023/08/11 01:01:57;;;;;;;11.32;4.95;;;;;;;-144.73;100.00;54428.22;4999669;28;20091;-72
2023/08/11 01:04:22;;;;;;;9.40;4.22;;;;;;;-144.73;100.00;54407.69;4998188;28;20041;-72
2023/08/11 01:07:07;;;;;;;12.55;4.38;;;;;;;-144.73;100.00;54438.50;4994288;28;20030;-72
2023/08/11 01:09:51;;;;;;;21.70;4.20;;;;;;;-144.73;100.00;54411.81;4992598;28;20126;-72
2023/08/11 01:12:37;;;;;;;12.20;4.72;;;;;;;-144.73;100.00;54444.66;4986575;28;20025;-72
2023/08/11 01:15:10;;;;;;;9.63;4.68;;;;;;;-144.73;100.00;54387.19;5000349;28;20579;-72
2023/08/11 01:17:38;;;;;;;16.60;4.97;;;;;;;-144.73;100.00;54446.69;4989645;28;20018;-72
2023/08/11 01:20:10;;;;;;;12.63;5.18;;;;;;;-144.73;100.00;54420.00;4988564;28;20038;-72
2023/08/11 01:22:36;;;;;;;;;;;;;;;-144.73;100.00;54407.69;4986135;28;20103;-72
2023/08/11 01:25:01;;;;;;;8.38;3.88;;;;;;;-144.73;100.00;54395.38;4985241;28;19913;-72
2023/08/11 01:27:28;;;;;;;7.47;4.13;;;;;;;-144.73;100.00;54407.69;4989544;28;20029;-73
2023/08/11 01:29:54;;;;;;;9.05;4.20;;;;;;;-144.73;100.00;54424.13;4988417;28;20031;-72
2023/08/11 01:32:19;;;;;;;12.70;4.15;;;;;;;-144.73;100.00;54432.31;4992248;28;20025;-73
2023/08/11 01:34:44;;;;;;;17.95;4.72;;;;;;;-144.73;100.00;54428.22;4989665;28;20053;-76
2023/08/11 01:37:10;;;;;;;12.43;4.32;;;;;;;-144.73;100.00;54420.00;4986106;28;20038;-72
2023/08/11 01:39:35;;;;;;;12.80;4.55;;;;;;;-144.73;100.00;54391.28;4989718;28;20093;-73
2023/08/11 01:42:01;;;;;;;11.13;4.82;;;;;;;-144.73;100.00;54448.75;4986838;28;20031;-72
2023/08/11 01:44:27;;;;;;;11.65;4.82;;;;;;;-144.73;100.00;54424.13;4990473;28;20034;-74
2023/08/11 01:46:55;;;;;;;11.05;5.70;;;;;;;-144.73;100.00;54395.38;4990695;28;20081;-71
2023/08/11 01:49:22;;;;;;;11.88;5.10;;;;;;;-144.73;100.00;54391.28;4984948;28;20027;-73
2023/08/11 01:51:48;;;;;;;10.20;4.53;;;;;;;-144.73;100.00;54456.97;4985779;28;20034;-72
2023/08/11 01:54:14;;;;;;;11.57;3.85;;;;;;;-144.73;100.00;54415.91;4988359;28;20085;-72
2023/08/11 01:56:42;;;;;;;7.05;3.60;;;;;;;-144.73;100.00;54448.75;4986743;28;20018;-71
2023/08/11 01:59:12;;;;;;;9.38;3.83;;;;;;;-144.73;100.00;54432.31;4989478;28;20058;-72
2023/08/11 02:01:38;;;;;;;13.40;3.95;;;;;;;-144.73;100.00;54378.97;4989603;28;20081;-72
2023/08/11 02:04:05;;;;;;;11.57;4.18;;;;;;;-144.73;100.00;54436.44;4985554;28;20049;-72
2023/08/11 02:06:30;;;;;;;11.27;4.68;;;;;;;-144.73;100.00;54415.91;4991583;28;20022;-71
2023/08/11 02:08:56;;;;;;;12.80;4.30;;;;;;;-144.73;100.00;54407.69;4991982;28;20042;-72
2023/08/11 02:11:22;;;;;;;7.38;3.20;;;;;;;-144.73;100.00;54444.66;4989505;28;20027;-73
2023/08/11 02:13:48;;;;;;;12.20;4.38;;;;;;;-144.73;100.00;54391.28;4989231;28;20041;-73
2023/08/11 02:16:13;;;;;;;15.98;4.07;;;;;;;-144.73;100.00;54434.38;4993608;28;20038;-72
2023/08/11 02:18:39;;;;;;;20.30;4.57;;;;;;;-144.73;100.00;54424.13;4994120;28;20106;-74
2023/08/11 02:21:06;;;;;;;13.55;3.88;;;;;;;-144.73;100.00;54413.84;4993833;28;20050;-74
2023/08/11 02:23:32;;;;;;;11.15;4.18;;;;;;;-144.73;100.00;54407.69;4994133;28;20018;-73
2023/08/11 02:25:57;;;;;;;11.18;3.63;;;;;;;-144.73;100.00;54426.16;5002161;28;20045;-73
2023/08/11 02:28:23;;;;;;;12.02;3.72;;;;;;;-144.73;100.00;54432.31;4992764;28;20032;-72
2023/08/11 02:30:48;;;;;;;13.02;3.58;;;;;;;-144.73;100.00;54465.16;4989929;28;20628;-73
2023/08/11 02:33:18;;;;;;;8.18;3.55;;;;;;;-144.73;100.00;54391.28;4992351;28;20036;-73
2023/08/11 02:35:44;;;;;;;13.75;4.63;;;;;;;-144.73;100.00;54440.53;4991647;28;20461;-73
2023/08/11 02:38:14;;;;;;;9.75;3.42;;;;;;;-144.73;100.00;54428.22;4989316;28;20109;-73
2023/08/11 02:40:39;;;;;;;11.80;4.07;;;;;;;-144.73;100.00;54385.13;4987103;28;20058;-73
2023/08/11 02:43:04;;;;;;;11.90;3.92;;;;;;;-144.73;100.00;54428.22;4990875;28;20066;-73
2023/08/11 02:45:30;;;;;;;20.50;3.40;;;;;;;-144.73;100.00;54407.69;4991296;28;20026;-73
2023/08/11 02:47:56;;;;;;;8.35;3.90;;;;;;;-144.73;100.00;54407.69;4986114;28;20026;-72
2023/08/11 02:50:21;;;;;;;13.75;4.18;;;;;;;-144.73;100.00;54411.81;4985176;28;20037;-73
2023/08/11 02:52:47;;;;;;;13.45;3.50;;;;;;;-144.73;100.00;54407.69;4992104;28;20028;-73
2023/08/11 02:55:12;;;;;;;14.20;4.00;;;;;;;-144.73;100.00;54407.69;4989378;28;20030;-73
2023/08/11 02:57:37;;;;;;;8.35;3.90;;;;;;;-144.73;100.00;54407.69;4988478;28;20023;-72
2023/08/11 03:00:14;;;;;;;8.98;3.40;;;;;;;-144.73;100.00;54420.00;4983780;28;20113;-73
2023/08/11 03:02:41;;;;;;;14.45;4.07;;;;;;;-144.73;100.00;54436.44;4990556;28;20018;-73
2023/08/11 03:05:07;;;;;;;10.98;4.00;;;;;;;-144.73;100.00;54420.00;4985676;28;20034;-73
2023/08/11 03:07:36;;;;;;;7.30;3.33;;;;;;;-144.73;100.00;54370.75;4991328;28;20081;-72
2023/08/11 03:10:03;;;;;;;10.50;3.60;;;;;;;-144.73;100.00;54407.69;4986835;28;20035;-72
2023/08/11 03:12:29;;;;;;;19.92;4.43;;;;;;;-144.73;100.00;54399.50;4981973;28;20018;-73
2023/08/11 03:14:54;;;;;;;9.82;3.40;;;;;;;-144.73;100.00;54399.50;4990561;28;20038;-73
2023/08/11 03:17:20;;;;;;;13.45;4.07;;;;;;;-144.73;100.00;54440.53;4986684;28;20058;-73
2023/08/11 03:19:46;;;;;;;11.93;3.25;;;;;;;-144.73;100.00;54450.81;4990889;28;20030;-73
2023/08/11 03:22:11;;;;;;;13.27;3.28;;;;;;;-144.73;100.00;54383.06;4993297;28;20026;-73
2023/08/11 03:24:36;;;;;;;12.70;3.15;;;;;;;-144.73;100.00;54415.91;4990867;28;20026;-73
2023/08/11 03:27:02;;;;;;;9.23;3.08;;;;;;;-144.73;100.00;54481.59;4991812;28;20069;-72
2023/08/11 03:29:28;;;;;;;13.57;3.45;;;;;;;-144.73;100.00;54422.06;4986049;28;20046;-73
2023/08/11 03:31:53;;;;;;;10.50;3.40;;;;;;;-144.73;100.00;54393.34;4991997;28;20018;-73
2023/08/11 03:34:18;;;;;;;13.32;3.20;;;;;;;-144.73;100.00;54428.22;4991899;28;20030;-73
2023/08/11 03:36:44;;;;;;;18.40;3.80;;;;;;;-144.73;100.00;54415.91;4989217;28;20018;-73
2023/08/11 03:39:09;;;;;;;13.57;3.95;;;;;;;-144.73;100.00;54452.84;4989200;28;20044;-73
2023/08/11 03:41:35;;;;;;;10.38;3.67;;;;;;;-144.73;100.00;54407.69;4990165;28;20027;-73
2023/08/11 03:44:01;;;;;;;12.27;3.25;;;;;;;-144.73;100.00;54407.69;4989466;28;20030;-73
2023/08/11 03:46:26;;;;;;;12.25;3.92;;;;;;;-144.73;100.00;54440.53;4988906;28;20023;-73
2023/08/11 03:48:51;;;;;;;10.48;3.30;;;;;;;-144.73;100.00;54422.06;4988890;28;20030;-73
2023/08/11 03:51:16;;;;;;;11.23;3.28;;;;;;;-144.73;100.00;54465.16;4991458;28;20026;-73
2023/08/11 03:53:42;;;;;;;14.05;3.10;;;;;;;-144.73;100.00;54432.31;4986153;28;20030;-73
2023/08/11 03:56:07;;;;;;;8.77;3.15;;;;;;;-144.73;100.00;54407.69;4992388;28;20031;-73
2023/08/11 03:58:39;;;;;;;10.38;3.10;;;;;;;-144.73;100.00;54415.91;4991302;28;20117;-73
2023/08/11 04:01:04;;;;;;;8.55;3.60;;;;;;;-144.73;100.00;54456.97;4988386;28;20053;-73
2023/08/11 04:03:33;;;;;;;16.38;3.63;;;;;;;-144.73;100.00;54424.13;4990511;28;20045;-73
2023/08/11 04:05:59;;;;;;;13.63;3.38;;;;;;;-144.73;100.00;54452.84;4990619;28;20031;-73
2023/08/11 04:08:25;;;;;;;10.05;3.15;;;;;;;-144.73;100.00;54420.00;4989631;28;20030;-73
2023/08/11 04:10:51;;;;;;;7.80;3.08;;;;;;;-144.73;100.00;54448.75;4985329;28;20034;-73
2023/08/11 04:13:17;;;;;;;6.72;2.45;;;;;;;-144.73;100.00;54417.97;4991110;28;20097;-73
2023/08/11 04:15:45;;;;;;;8.48;3.08;;;;;;;-144.73;100.00;54424.13;4990489;28;20122;-73
2023/08/11 04:18:11;;;;;;;12.18;4.35;;;;;;;-144.73;100.00;54452.84;4990954;28;20069;-73
2023/08/11 04:20:37;;;;;;;10.45;3.10;;;;;;;-144.73;100.00;54444.66;4987669;28;20114;-73
2023/08/11 04:23:03;;;;;;;6.50;3.00;;;;;;;-144.73;100.00;54407.69;4991297;28;20106;-73
2023/08/11 04:25:29;;;;;;;11.35;3.05;;;;;;;-144.73;100.00;54407.69;4991205;28;20030;-73
2023/08/11 04:27:55;;;;;;;11.38;3.08;;;;;;;-144.73;100.00;54436.44;4990303;28;20109;-73
2023/08/11 04:30:21;;;;;;;11.00;3.08;;;;;;;-144.73;100.00;54436.44;4995191;28;20088;-73
2023/08/11 04:32:47;;;;;;;9.70;3.00;;;;;;;-144.73;100.00;54407.69;4979069;28;20530;-73
2023/08/11 04:35:12;;;;;;;10.18;2.95;;;;;;;-144.73;100.00;54420.00;4989846;28;20116;-73
2023/08/11 04:37:38;;;;;;;9.75;3.08;;;;;;;-144.73;100.00;54436.44;4985030;28;20061;-73
2023/08/11 04:40:10;;;;;;;9.93;2.90;;;;;;;-144.73;100.00;54440.53;4988987;28;20041;-73
2023/08/11 04:42:43;;;;;;;12.70;3.08;;;;;;;-144.73;100.00;54370.75;4990904;28;20058;-73
2023/08/11 04:45:10;;;;;;;8.80;2.92;;;;;;;-144.73;100.00;54446.69;4988312;28;20064;-73
2023/08/11 04:47:36;;;;;;;7.53;3.33;;;;;;;-144.73;100.00;54446.69;4991591;28;20026;-73
2023/08/11 04:50:02;;;;;;;11.40;2.90;;;;;;;-144.73;100.00;54442.59;4988455;28;20046;-74
2023/08/11 04:52:27;;;;;;;12.77;3.13;;;;;;;-144.73;100.00;54448.75;4991318;28;20034;-73
2023/08/11 04:54:53;;;;;;;9.40;3.10;;;;;;;-144.73;100.00;54415.91;4990938;28;20109;-73
2023/08/11 04:57:18;;;;;;;13.27;3.40;;;;;;;-144.73;100.00;54415.91;4990432;28;20060;-76
2023/08/11 04:59:43;;;;;;;9.80;3.20;;;;;;;-144.73;100.00;54420.00;4988876;28;20084;-73
2023/08/11 05:02:09;;;;;;;9.90;2.95;;;;;;;-144.73;100.00;54417.97;4986920;28;20394;-73
2023/08/11 05:04:34;;;;;;;15.82;3.47;;;;;;;-144.73;100.00;54465.16;4989141;28;20037;-73
2023/08/11 05:07:00;;;;;;;10.90;3.08;;;;;;;-144.73;100.00;54417.97;4989925;28;20034;-74
2023/08/11 05:09:25;;;;;;;13.18;4.25;;;;;;;-144.73;100.00;54459.00;4989089;28;20141;-73
2023/08/11 05:11:51;;;;;;;7.43;2.95;;;;;;;-144.73;100.00;54440.53;4989139;28;20029;-73
2023/08/11 05:14:17;;;;;;;8.38;3.75;;;;;;;-144.73;100.00;54391.28;4987767;28;20030;-73
2023/08/11 05:16:44;;;;;;;8.32;2.83;;;;;;;-144.73;100.00;54452.84;4989941;28;20025;-73
2023/08/11 05:19:09;;;;;;;9.25;3.38;;;;;;;-144.73;100.00;54411.81;4988595;28;20121;-73
2023/08/11 05:21:36;;;;;;;14.57;3.20;;;;;;;-144.73;100.00;54424.13;4989106;28;20118;-72
2023/08/11 05:24:02;;;;;;;12.38;3.25;;;;;;;-144.73;100.00;54411.81;4988948;28;20026;-73
2023/08/11 05:26:28;;;;;;;13.57;3.15;;;;;;;-144.73;100.00;54407.69;4988992;28;20018;-73
2023/08/11 05:28:53;;;;;;;6.70;2.83;;;;;;;-144.73;100.00;54407.69;4988773;28;20030;-72
2023/08/11 05:31:18;;;;;;;13.57;3.42;;;;;;;-144.73;100.00;54415.91;4990966;28;20073;-72
2023/08/11 05:33:44;;;;;;;13.27;3.38;;;;;;;-144.73;100.00;54424.13;4988807;28;20040;-75
2023/08/11 05:36:09;;;;;;;14.70;3.03;;;;;;;-144.73;100.00;54411.81;4988912;28;20090;-72
2023/08/11 05:38:35;;;;;;;10.30;3.15;;;;;;;-144.73;100.00;54399.50;4988831;28;20291;-72
2023/08/11 05:41:00;;;;;;;13.48;2.97;;;;;;;-144.73;100.00;54411.81;4989302;28;20042;-72
2023/08/11 05:43:26;;;;;;;11.23;4.20;;;;;;;-144.73;100.00;54397.44;4990866;28;20473;-73
2023/08/11 05:45:51;;;;;;;13.32;3.28;;;;;;;-144.73;100.00;54383.06;4989211;28;20121;-73
2023/08/11 05:48:16;;;;;;;9.95;3.28;;;;;;;-144.73;100.00;54420.00;4988360;28;20030;-73
2023/08/11 05:50:45;;;;;;;16.02;3.33;;;;;;;-144.73;100.00;54424.13;4988669;28;20030;-73
2023/08/11 05:53:11;;;;;;;11.43;3.42;;;;;;;-144.73;100.00;54428.22;4989429;28;20050;-73
2023/08/11 05:55:37;;;;;;;11.23;3.67;;;;;;;-144.73;100.00;54366.66;4988722;28;20038;-73
2023/08/11 05:58:03;;;;;;;10.48;3.78;;;;;;;-144.73;100.00;54436.44;4989755;28;20037;-73
2023/08/11 06:00:28;;;;;;;15.68;3.60;;;;;;;-144.73;100.00;54422.06;4988396;28;20026;-73
2023/08/11 06:02:53;;;;;;;16.35;3.28;;;;;;;-144.73;100.00;54387.19;4991576;28;20050;-73
2023/08/11 06:05:21;;;;;;;13.60;3.20;;;;;;;-144.73;100.00;54436.44;4988557;28;20038;-73
2023/08/11 06:07:48;;;;;;;11.90;3.35;;;;;;;-144.73;100.00;54420.00;4989801;28;20045;-74
2023/08/11 06:10:13;;;;;;;11.68;3.45;;;;;;;-144.73;100.00;54428.22;4988673;28;20038;-73
2023/08/11 06:12:39;;;;;;;15.75;3.42;;;;;;;-144.73;100.00;54440.53;4990679;28;20034;-73
2023/08/11 06:15:05;;;;;;;8.40;2.80;;;;;;;-144.73;100.00;54397.44;4988823;28;20035;-73
2023/08/11 06:17:30;;;;;;;11.55;3.85;;;;;;;-144.73;100.00;54420.00;4989083;28;20027;-73
2023/08/11 06:19:57;;;;;;;15.50;3.60;;;;;;;-144.73;100.00;54424.13;4987497;28;20045;-73
2023/08/11 06:22:23;;;;;;;12.32;3.40;;;;;;;-144.73;100.00;54420.00;4989095;28;20092;-73
2023/08/11 06:24:48;;;;;;;10.65;3.00;;;;;;;-144.73;100.00;54399.50;4989849;28;20030;-73
2023/08/11 06:27:14;;;;;;;16.77;2.90;;;;;;;-144.73;100.00;54436.44;4989295;28;20122;-73
2023/08/11 06:29:40;;;;;;;8.88;2.60;;;;;;;-144.73;100.00;54407.69;4989199;28;20035;-73
2023/08/11 06:32:06;;;;;;;9.80;2.70;;;;;;;-144.73;100.00;54387.19;4991307;28;20378;-72
2023/08/11 06:34:32;;;;;;;16.08;3.65;;;;;;;-144.73;100.00;54432.31;4990110;28;20166;-72
2023/08/11 06:36:57;;;;;;;12.23;3.10;;;;;;;-144.73;100.00;54432.31;4988997;28;20071;-71
2023/08/11 06:39:23;;;;;;;15.70;3.35;;;;;;;-144.73;100.00;54407.69;4987523;28;20576;-73
2023/08/11 06:41:48;;;;;;;8.55;2.88;;;;;;;-144.73;100.00;54444.66;4989241;28;20030;-73
2023/08/11 06:44:14;;;;;;;16.95;3.35;;;;;;;-144.73;100.00;54391.28;4989762;28;20050;-72
2023/08/11 06:46:39;;;;;;;12.70;3.10;;;;;;;-144.73;100.00;54444.66;4989296;28;20034;-73
2023/08/11 06:49:04;;;;;;;7.32;3.05;;;;;;;-144.73;100.00;54456.97;4989099;28;20037;-73
2023/08/11 06:51:30;;;;;;;10.50;2.80;;;;;;;-144.73;100.00;54448.75;4991877;28;20025;-73
2023/08/11 06:53:55;;;;;;;11.63;3.45;;;;;;;-144.73;100.00;54407.69;4991289;28;20022;-74
2023/08/11 06:56:24;;;;;;;9.40;3.28;;;;;;;-144.73;100.00;54420.00;4988642;28;20022;-73
2023/08/11 06:58:51;;;;;;;9.80;3.05;;;;;;;-144.73;100.00;54428.22;4989363;28;20515;-73
2023/08/11 07:01:18;;;;;;;17.27;3.42;;;;;;;-144.73;100.00;54452.84;4987577;28;20037;-73
2023/08/11 07:03:47;;;;;;;6.78;2.95;;;;;;;-144.73;100.00;54424.13;4990066;28;20058;-73
2023/08/11 07:06:13;;;;;;;14.35;4.07;;;;;;;-144.73;100.00;54426.16;5000507;28;20065;-73
2023/08/11 07:08:39;;;;;;;15.00;3.50;;;;;;;-144.73;100.00;54444.66;4989554;28;20117;-73
2023/08/11 07:11:05;;;;;;;15.60;4.00;;;;;;;-144.73;100.00;54395.38;4978822;28;20038;-73
2023/08/11 07:13:31;;;;;;;19.25;3.45;;;;;;;-144.73;100.00;54383.06;4992060;28;20034;-73
2023/08/11 07:15:57;;;;;;;11.75;3.38;;;;;;;-144.73;100.00;54415.91;4992306;28;20088;-73
2023/08/11 07:18:23;;;;;;;13.95;3.80;;;;;;;-144.73;100.00;54393.34;4977378;28;20062;-75
2023/08/11 07:20:49;;;;;;;10.13;3.28;;;;;;;-144.73;100.00;54456.97;4981675;28;20042;-74
2023/08/11 07:23:16;;;;;;;9.05;3.08;;;;;;;-144.73;100.00;54432.31;4981568;28;20037;-74
2023/08/11 07:25:47;;;;;;;14.65;3.45;;;;;;;-144.73;100.00;54391.28;4990840;28;20042;-75
2023/08/11 07:28:12;;;;;;;20.30;3.80;;;;;;;-144.73;100.00;54428.22;4986352;28;20033;-75
2023/08/11 07:30:38;;;;;;;12.15;3.75;;;;;;;-144.73;100.00;54415.91;4983006;28;20121;-75
2023/08/11 07:33:04;;;;;;;21.20;3.75;;;;;;;-144.73;100.00;54432.31;4991958;28;20374;-74
2023/08/11 07:35:30;;;;;;;18.23;4.57;;;;;;;-144.73;100.00;54387.19;4982844;28;20031;-75
2023/08/11 07:37:59;;;;;;;13.95;3.17;;;;;;;-144.73;100.00;54444.66;4986731;28;20026;-75
2023/08/11 07:40:24;;;;;;;24.83;3.90;;;;;;;-144.73;100.00;54422.06;4992619;28;20119;-75
2023/08/11 07:42:50;;;;;;;26.40;3.22;;;;;;;-144.73;100.00;54432.31;4990354;28;20094;-74
2023/08/11 07:45:15;;;;;;;9.27;3.33;;;;;;;-144.73;100.00;54383.06;4988184;28;20038;-74
2023/08/11 07:47:41;;;;;;;17.77;3.65;;;;;;;-144.73;100.00;54407.69;4994035;28;20118;-74
2023/08/11 07:50:07;;;;;;;9.38;3.40;;;;;;;-144.73;100.00;54395.38;4992019;28;20034;-74
2023/08/11 07:52:32;;;;;;;12.43;3.42;;;;;;;-144.73;100.00;54456.97;4993094;28;20030;-76
2023/08/11 07:54:58;;;;;;;22.13;4.32;;;;;;;-144.73;100.00;54444.66;4991915;28;20034;-74
2023/08/11 07:57:23;;;;;;;19.25;4.68;;;;;;;-144.73;100.00;54411.81;4992194;28;20022;-74
2023/08/11 07:59:49;;;;;;;13.13;3.30;;;;;;;-144.73;100.00;54387.19;4990343;28;20049;-74
2023/08/11 08:02:17;;;;;;;13.98;3.95;;;;;;;-144.73;100.00;54395.38;4992458;28;20389;-75
2023/08/11 08:04:43;;;;;;;36.28;4.38;;;;;;;-144.73;100.00;54428.22;4991976;28;20030;-75
2023/08/11 08:07:10;;;;;;;18.17;3.65;;;;;;;-144.73;100.00;54407.69;4992665;28;20033;-75
2023/08/11 08:09:35;;;;;;;11.68;3.97;;;;;;;-144.73;100.00;54407.69;4991399;28;20124;-75
2023/08/11 08:12:01;;;;;;;13.07;4.30;;;;;;;-144.73;100.00;54407.69;4991786;28;20050;-75
2023/08/11 08:14:27;;;;;;;11.95;3.95;;;;;;;-144.73;100.00;54411.81;4991741;28;20033;-75
2023/08/11 08:16:53;;;;;;;14.32;3.85;;;;;;;-144.73;100.00;54407.69;4992186;28;20129;-75
2023/08/11 08:19:20;;;;;;;10.77;2.92;;;;;;;-144.73;100.00;54407.69;4993019;28;20034;-75
2023/08/11 08:21:46;;;;;;;17.00;3.90;;;;;;;-144.73;100.00;54387.19;4993291;28;20114;-75
2023/08/11 08:24:14;;;;;;;18.65;4.22;;;;;;;-144.73;100.00;54366.66;4997805;28;20033;-75
2023/08/11 08:26:40;;;;;;;20.20;4.38;;;;;;;-144.73;100.00;54378.97;4996795;28;20109;-75
2023/08/11 08:29:05;;;;;;;11.23;3.65;;;;;;;-144.73;100.00;54407.69;5010982;28;20113;-75
2023/08/11 08:31:31;;;;;;;13.02;4.03;;;;;;;-144.73;100.00;54393.34;5011131;28;20034;-75
2023/08/11 08:33:56;;;;;;;19.15;4.32;;;;;;;-144.73;100.00;54395.38;4999507;28;20462;-75
2023/08/11 08:36:22;;;;;;;18.95;4.53;;;;;;;-144.73;100.00;54407.69;4991938;28;20036;-75
2023/08/11 08:38:47;;;;;;;15.30;4.43;;;;;;;-144.73;100.00;54366.66;4991456;28;20037;-76
2023/08/11 08:41:14;;;;;;;15.30;3.83;;;;;;;-144.73;100.00;54383.06;4992066;28;20090;-75
2023/08/11 08:43:40;;;;;;;14.65;3.78;;;;;;;-144.73;100.00;54432.31;5010312;28;20034;-75
2023/08/11 08:46:06;;;;;;;21.45;4.13;;;;;;;-144.73;100.00;54407.69;5011106;28;20045;-76
2023/08/11 08:48:52;;;;;;;10.00;3.55;;;;;;;-144.73;100.00;54366.66;5007650;28;20025;-75
2023/08/11 08:51:19;;;;;;;19.67;4.05;;;;;;;-144.73;100.00;54420.00;4988050;28;20038;-75
2023/08/11 08:53:44;;;;;;;18.75;3.97;;;;;;;-144.73;100.00;54424.13;4971701;28;20085;-74
2023/08/11 08:56:10;;;;;;;15.88;3.63;;;;;;;-144.73;100.00;54387.19;4971123;28;20537;-75
2023/08/11 08:58:35;;;;;;;18.23;5.05;;;;;;;-144.73;100.00;54407.69;4972948;28;20080;-74
2023/08/11 09:01:02;;;;;;;16.15;5.60;;;;;;;-144.73;100.00;54424.13;4971737;28;20038;-76
2023/08/11 09:03:30;;;;;;;17.02;4.25;;;;;;;-144.73;100.00;54397.44;4974039;28;20023;-75
2023/08/11 09:05:56;;;;;;;22.80;4.30;;;;;;;-144.73;100.00;54411.81;4965195;28;20030;-75
2023/08/11 09:08:22;;;;;;;23.92;4.22;;;;;;;-144.73;100.00;54424.13;4976073;28;20110;-75
2023/08/11 09:10:47;;;;;;;16.33;4.72;;;;;;;-144.73;100.00;54446.69;4982297;28;20190;-76
2023/08/11 09:13:15;;;;;;;14.50;4.35;;;;;;;-144.73;100.00;54383.06;4981613;28;20077;-76
2023/08/11 09:15:41;;;;;;;13.30;4.82;;;;;;;-144.73;100.00;54370.75;4979906;28;20113;-76
2023/08/11 09:18:06;;;;;;;12.00;3.55;;;;;;;-144.73;100.00;54374.84;4980899;28;20054;-76
2023/08/11 09:20:32;;;;;;;15.90;5.20;;;;;;;-144.73;100.00;54383.06;4978020;28;20031;-76
2023/08/11 09:22:58;;;;;;;15.85;4.70;;;;;;;-144.73;100.00;54352.28;4984599;28;20034;-76
2023/08/11 09:25:23;;;;;;;16.75;4.93;;;;;;;-144.73;100.00;54383.06;4978145;28;20097;-76
2023/08/11 09:27:50;;;;;;;7.50;4.35;;;;;;;-144.73;100.00;54362.53;4980840;28;20039;-76
2023/08/11 09:30:17;;;;;;;16.55;5.07;;;;;;;-144.73;100.00;54366.66;4994127;28;20579;-76
2023/08/11 09:32:47;;;;;;;33.17;5.55;;;;;;;-144.73;100.00;54391.28;4977617;28;20110;-76
2023/08/11 09:35:13;;;;;;;12.15;5.38;;;;;;;-144.73;100.00;54370.75;4982020;28;20037;-76
2023/08/11 09:37:42;;;;;;;14.10;5.50;;;;;;;-144.73;100.00;54358.44;4982654;28;20030;-76
2023/08/11 09:40:08;;;;;;;15.93;5.63;;;;;;;-144.73;100.00;54407.69;4979598;28;20046;-76
2023/08/11 09:42:34;;;;;;;10.90;5.25;;;;;;;-144.73;100.00;54387.19;4981045;28;20022;-76
2023/08/11 09:44:59;;;;;;;19.02;4.88;;;;;;;-144.73;100.00;54391.28;4981340;28;20102;-77
2023/08/11 09:47:28;;;;;;;13.23;4.50;;;;;;;-144.73;100.00;54385.13;4965448;28;20029;-76
2023/08/11 09:49:54;;;;;;;12.90;4.57;;;;;;;-144.73;100.00;54378.97;4969537;28;20035;-76
2023/08/11 09:52:19;;;;;;;20.90;4.72;;;;;;;-144.73;100.00;54366.66;4968522;28;20163;-76
2023/08/11 09:54:48;;;;;;;12.43;5.13;;;;;;;-144.73;100.00;54374.84;4967717;28;20058;-76
2023/08/11 09:57:15;;;;;;;14.32;4.38;;;;;;;-144.73;100.00;54358.44;4962911;28;20069;-76
2023/08/11 09:59:43;;;;;;;11.02;5.45;;;;;;;-144.73;100.00;54374.84;4968850;28;20038;-76
2023/08/11 10:02:14;;;;;;;12.75;5.00;;;;;;;-144.73;99.38;54391.28;4968905;28;20027;-75
2023/08/11 10:04:48;;;;;;;13.38;4.65;;;;;;;-144.73;100.00;54366.66;4967425;28;20051;-77
2023/08/11 10:07:15;;;;;;;10.85;4.93;;;;;;;-144.73;100.00;54366.66;4965891;28;20031;-76
2023/08/11 10:09:43;;;;;;;14.52;4.78;;;;;;;-144.73;100.00;54374.84;4963494;28;20031;-76
2023/08/11 10:12:09;;;;;;;14.88;4.75;;;;;;;-144.73;99.23;54350.22;4971374;28;20026;-75
2023/08/11 10:14:36;;;;;;;16.23;4.75;;;;;;;-144.73;99.32;54370.75;4969958;28;20031;-76
2023/08/11 10:17:03;;;;;;;16.55;4.80;;;;;;;-144.73;100.00;54350.22;4971366;28;20022;-76
2023/08/11 10:19:30;;;;;;;25.02;4.97;;;;;;;-144.73;100.00;54350.22;4971507;28;20034;-78
2023/08/11 10:21:56;;;;;;;12.07;4.18;;;;;;;-144.73;100.00;54383.06;4987898;28;20389;-75
2023/08/11 10:24:22;;;;;;;11.32;4.80;;;;;;;-144.73;98.12;54337.91;4978734;28;20043;-76
2023/08/11 10:26:48;;;;;;;9.82;4.68;;;;;;;-144.73;100.00;54337.91;4982804;28;20078;-75
2023/08/11 10:29:14;;;;;;;13.32;3.92;;;;;;;-144.73;100.00;54374.84;4976327;28;20110;-76
2023/08/11 10:31:54;;;;;;;9.88;4.00;;;;;;;-144.73;99.52;54364.59;4973898;28;20026;-76
2023/08/11 10:34:24;;;;;;;15.23;3.72;;;;;;;-144.73;96.38;54346.13;4968284;28;20086;-76
2023/08/11 10:36:53;;;;;;;10.35;3.70;;;;;;;-144.73;95.03;54342.03;4971489;28;20031;-76
2023/08/11 10:39:20;;;;;;;12.23;3.75;;;;;;;-144.73;95.52;54321.50;4967214;28;20031;-76
2023/08/11 10:41:46;;;;;;;11.48;3.85;;;;;;;-144.73;94.15;54358.44;4969239;28;20042;-76
2023/08/11 10:44:12;;;;;;;7.28;3.35;;;;;;;-144.73;92.18;54342.03;4974533;28;20057;-76
2023/08/11 10:46:38;;;;;;;8.77;3.60;;;;;;;-144.73;89.22;54350.22;4971191;28;20098;-76
2023/08/11 10:49:03;;;;;;;12.38;3.78;;;;;;;-144.73;91.31;54395.38;4974315;28;20113;-75
2023/08/11 10:51:32;;;;;;;9.05;4.00;;;;;;;-144.73;90.39;54335.88;4977535;28;20053;-78
2023/08/11 10:54:24;;;;;;;9.00;3.40;;;;;;;-144.73;93.25;54358.44;4973254;28;20031;-76
2023/08/11 10:56:51;;;;;;;4.75;2.80;;;;;;;-144.73;92.00;54317.38;4968129;28;20043;-76
2023/08/11 10:59:25;;;;;;;4.32;2.42;;;;;;;-144.73;84.45;54356.38;4973350;28;20026;-76
2023/08/11 11:01:53;;;;;;;3.90;2.45;;;;;;;-144.73;84.90;54317.38;4967168;28;20023;-76